Time;durP1;ratioP1;P1;durP2;ratioP2;P2;SDS_P1;SDS_P2;PMS_P1;PMS_P2;Temp;Humidity;BMP_temperature;BMP_pressure;BME280_temperature;BME280_humidity;BME280_pressure;Samples;Min_cycle;Max_cycle;Signal;HPM_P1;HPM_P2
2022/03/02 00:02:24;;;;;;;0.30;0.10;;;-3.50;99.90;;;;;;5066604;28;20201;-85
2022/03/02 00:04:51;;;;;;;0.40;0.20;;;-3.40;99.90;;;;;;5068522;28;20275;-81
2022/03/02 00:07:17;;;;;;;0.38;0.20;;;-3.40;99.90;;;;;;5067410;28;20255;-82
2022/03/02 00:09:44;;;;;;;0.55;0.52;;;-3.50;99.90;;;;;;5071897;28;20255;-82
2022/03/02 00:12:11;;;;;;;0.30;0.10;;;-3.60;99.90;;;;;;5072961;28;20224;-81
2022/03/02 00:14:38;;;;;;;0.30;0.20;;;-3.70;99.90;;;;;;5066643;28;20722;-82
2022/03/02 00:17:06;;;;;;;0.30;0.10;;;-3.70;99.90;;;;;;5065518;28;20242;-82
2022/03/02 00:19:34;;;;;;;0.30;0.10;;;-3.80;99.90;;;;;;5067650;28;20229;-82
2022/03/02 00:22:01;;;;;;;0.30;0.10;;;-3.80;99.90;;;;;;5069791;28;20232;-83
2022/03/02 00:24:28;;;;;;;0.30;0.10;;;-3.90;99.90;;;;;;5068522;28;20284;-84
2022/03/02 00:26:55;;;;;;;0.30;0.10;;;-4.00;99.90;;;;;;5066050;28;20213;-85
2022/03/02 00:29:22;;;;;;;0.30;0.10;;;-4.10;99.90;;;;;;5066843;28;20286;-81
2022/03/02 00:31:49;;;;;;;0.30;0.10;;;-4.20;99.90;;;;;;5063802;28;20202;-85
2022/03/02 00:34:16;;;;;;;0.30;0.20;;;-4.20;99.90;;;;;;5067425;28;20631;-85
2022/03/02 00:36:45;;;;;;;0.30;0.10;;;-4.20;99.90;;;;;;5073509;28;20198;-84
2022/03/02 00:39:12;;;;;;;0.30;0.10;;;-4.20;99.90;;;;;;5082582;28;20243;-83
2022/03/02 00:41:39;;;;;;;0.30;0.10;;;-4.20;99.90;;;;;;5068372;28;20232;-84
2022/03/02 00:44:06;;;;;;;0.30;0.10;;;-4.10;99.90;;;;;;5068749;28;20229;-84
2022/03/02 00:46:33;;;;;;;0.40;0.32;;;-4.00;99.90;;;;;;5066167;28;20198;-84
2022/03/02 00:49:02;;;;;;;0.30;0.10;;;-4.10;99.90;;;;;;5066614;28;20198;-87
2022/03/02 00:51:30;;;;;;;0.30;0.10;;;-4.10;99.90;;;;;;5068286;28;20789;-84
2022/03/02 00:53:59;;;;;;;0.30;0.22;;;-4.20;99.90;;;;;;5070066;28;20202;-85
2022/03/02 00:56:26;;;;;;;0.30;0.10;;;-4.20;99.90;;;;;;5065326;28;20201;-86
2022/03/02 00:58:53;;;;;;;0.55;0.55;;;-4.20;99.90;;;;;;5066150;28;20190;-81
2022/03/02 01:01:20;;;;;;;0.30;0.10;;;-4.10;99.90;;;;;;5064063;28;20749;-84
2022/03/02 01:03:47;;;;;;;0.30;0.20;;;-4.00;99.90;;;;;;5063358;28;20736;-84
2022/03/02 01:06:14;;;;;;;0.30;0.10;;;-3.80;99.90;;;;;;5060618;28;20202;-83
2022/03/02 01:08:41;;;;;;;0.30;0.10;;;-3.90;99.90;;;;;;5066377;28;20201;-84
2022/03/02 01:11:10;;;;;;;0.30;0.20;;;-4.00;99.90;;;;;;5062588;28;20209;-83
2022/03/02 01:13:37;;;;;;;0.30;0.10;;;-4.10;99.90;;;;;;5068709;28;20201;-83
2022/03/02 01:16:04;;;;;;;0.40;0.20;;;-4.20;99.90;;;;;;5066607;28;20229;-82
2022/03/02 01:18:31;;;;;;;0.40;0.32;;;-4.10;99.90;;;;;;5066722;28;20248;-84
2022/03/02 01:20:59;;;;;;;0.30;0.28;;;-4.20;99.90;;;;;;5058376;28;20197;-83
2022/03/02 01:23:26;;;;;;;2.50;2.40;;;-4.30;99.90;;;;;;5064292;28;20252;-83
2022/03/02 01:25:53;;;;;;;0.30;0.10;;;-4.40;99.90;;;;;;5062750;28;20199;-82
2022/03/02 01:28:21;;;;;;;0.60;0.45;;;-4.50;99.90;;;;;;5066448;28;20251;-83
2022/03/02 01:30:48;;;;;;;0.30;0.10;;;-4.40;99.90;;;;;;5060562;28;20193;-82
2022/03/02 01:33:15;;;;;;;0.30;0.20;;;-4.40;99.90;;;;;;5062958;28;20206;-82
2022/03/02 01:35:42;;;;;;;0.77;0.77;;;-4.30;99.90;;;;;;5061592;28;20258;-84
2022/03/02 01:38:09;;;;;;;0.30;0.10;;;-4.30;99.90;;;;;;5068950;28;20231;-82
2022/03/02 01:40:36;;;;;;;0.30;0.10;;;-4.40;99.90;;;;;;5079862;28;20205;-83
2022/03/02 01:43:04;;;;;;;0.30;0.10;;;-4.50;99.90;;;;;;5067755;28;20197;-82
2022/03/02 01:45:32;;;;;;;0.30;0.10;;;-4.60;99.90;;;;;;5064642;28;20733;-82
2022/03/02 01:48:00;;;;;;;0.30;0.10;;;-4.70;99.90;;;;;;5067252;28;20205;-83
2022/03/02 01:50:27;;;;;;;0.30;0.10;;;-4.70;99.90;;;;;;5069377;28;20197;-82
2022/03/02 01:52:54;;;;;;;0.30;0.20;;;-4.80;99.90;;;;;;5067032;28;20726;-83
2022/03/02 01:55:21;;;;;;;0.30;0.10;;;-4.90;99.90;;;;;;5067160;28;20564;-81
2022/03/02 01:57:48;;;;;;;0.30;0.15;;;-4.80;99.90;;;;;;5067225;28;20247;-82
2022/03/02 02:00:19;;;;;;;0.30;0.10;;;-4.80;99.90;;;;;;5062778;28;20676;-84
2022/03/02 02:02:48;;;;;;;0.30;0.20;;;-4.70;99.90;;;;;;5067092;28;20764;-82
2022/03/02 02:05:16;;;;;;;0.30;0.10;;;-4.70;99.90;;;;;;5065552;28;20708;-85
2022/03/02 02:07:44;;;;;;;0.30;0.10;;;-4.70;99.90;;;;;;5061099;28;20218;-83
2022/03/02 02:10:12;;;;;;;0.30;0.10;;;-4.60;99.90;;;;;;5062494;28;20201;-82
2022/03/02 02:12:39;;;;;;;0.30;0.20;;;-4.60;99.90;;;;;;5073015;28;20750;-82
2022/03/02 02:15:07;;;;;;;0.30;0.20;;;-4.80;99.90;;;;;;5070184;28;20233;-82
2022/03/02 02:17:34;;;;;;;0.30;0.10;;;-4.80;99.90;;;;;;5062595;28;20725;-82
2022/03/02 02:20:03;;;;;;;0.30;0.20;;;-4.80;99.90;;;;;;5067335;28;20686;-81
2022/03/02 02:22:31;;;;;;;2.17;0.63;;;-4.80;99.90;;;;;;5070967;28;20197;-82
2022/03/02 02:24:58;;;;;;;0.30;0.10;;;-4.80;99.90;;;;;;5069267;28;20797;-81
2022/03/02 02:27:25;;;;;;;0.30;0.10;;;-4.70;99.90;;;;;;5072065;28;20238;-82
2022/03/02 02:29:52;;;;;;;0.30;0.10;;;-4.70;99.90;;;;;;5072324;28;20197;-82
2022/03/02 02:32:19;;;;;;;0.30;0.10;;;-4.80;99.90;;;;;;5070709;28;20194;-85
2022/03/02 02:34:46;;;;;;;0.30;0.10;;;-4.80;99.90;;;;;;5071634;28;20709;-81
2022/03/02 02:37:14;;;;;;;0.30;0.10;;;-4.80;99.90;;;;;;5074913;28;20725;-84
2022/03/02 02:39:42;;;;;;;0.30;0.10;;;-4.80;99.90;;;;;;5085324;28;20198;-84
2022/03/02 02:42:10;;;;;;;0.30;0.10;;;-4.90;99.90;;;;;;5081930;28;20197;-84
2022/03/02 02:44:38;;;;;;;0.30;0.10;;;-5.00;99.90;;;;;;5075031;28;20222;-84
2022/03/02 02:47:05;;;;;;;0.30;0.10;;;-5.00;99.90;;;;;;5068352;28;20198;-86
2022/03/02 02:49:32;;;;;;;0.30;0.10;;;-5.00;99.90;;;;;;5070779;28;20260;-83
2022/03/02 02:51:59;;;;;;;0.30;0.10;;;-5.00;99.90;;;;;;5068062;28;20575;-83
2022/03/02 02:54:26;;;;;;;0.30;0.10;;;-5.00;99.90;;;;;;5066120;28;20286;-83
2022/03/02 02:56:54;;;;;;;0.30;0.10;;;-5.00;99.90;;;;;;5066064;28;20720;-83
2022/03/02 02:59:21;;;;;;;0.30;0.20;;;-4.80;99.90;;;;;;5069198;28;20201;-82
2022/03/02 03:01:48;;;;;;;0.30;0.20;;;-4.80;99.90;;;;;;5071366;28;21075;-83
2022/03/02 03:04:15;;;;;;;0.30;0.10;;;-4.70;99.90;;;;;;5067104;28;20226;-83
2022/03/02 03:06:42;;;;;;;0.30;0.10;;;-4.60;99.90;;;;;;5071273;28;20247;-86
2022/03/02 03:09:09;;;;;;;0.40;0.30;;;-4.60;99.90;;;;;;5068793;28;20283;-84
2022/03/02 03:11:38;;;;;;;0.30;0.20;;;-4.70;99.90;;;;;;5068723;28;20209;-85
2022/03/02 03:14:10;;;;;;;0.30;0.10;;;-4.80;99.90;;;;;;5069134;28;20284;-80
2022/03/02 03:16:37;;;;;;;0.30;0.10;;;-4.80;99.90;;;;;;5069216;28;20292;-84
2022/03/02 03:19:04;;;;;;;0.30;0.10;;;-4.70;99.90;;;;;;5065736;28;20202;-81
2022/03/02 03:21:32;;;;;;;0.30;0.10;;;-4.80;99.90;;;;;;5063246;28;20717;-82
2022/03/02 03:23:59;;;;;;;0.30;0.10;;;-4.80;99.90;;;;;;5071025;28;20194;-84
2022/03/02 03:26:26;;;;;;;0.30;0.10;;;-4.80;99.90;;;;;;5069485;28;20263;-82
2022/03/02 03:28:54;;;;;;;0.30;0.10;;;-4.80;99.90;;;;;;5067045;28;20637;-83
2022/03/02 03:31:22;;;;;;;0.30;0.10;;;-4.80;99.90;;;;;;5068087;28;20229;-82
2022/03/02 03:33:49;;;;;;;0.30;0.10;;;-4.90;99.90;;;;;;5066608;28;20259;-82
2022/03/02 03:36:16;;;;;;;0.30;0.10;;;-4.90;99.90;;;;;;5061589;28;20230;-82
2022/03/02 03:38:44;;;;;;;0.30;0.20;;;-4.90;99.90;;;;;;5075225;28;20194;-82
2022/03/02 03:41:11;;;;;;;0.30;0.10;;;-5.00;99.90;;;;;;5080166;28;20204;-83
2022/03/02 03:43:38;;;;;;;0.30;0.10;;;-4.90;99.90;;;;;;5070438;28;20304;-84
2022/03/02 03:46:05;;;;;;;0.30;0.10;;;-5.00;99.90;;;;;;5063922;28;20262;-86
2022/03/02 03:48:34;;;;;;;0.30;0.10;;;-5.00;99.90;;;;;;5067992;28;20284;-82
2022/03/02 03:51:01;;;;;;;0.30;0.10;;;-5.00;99.90;;;;;;5070703;28;20209;-83
2022/03/02 03:53:28;;;;;;;0.30;0.10;;;-4.90;99.90;;;;;;5064786;28;20201;-83
2022/03/02 03:55:55;;;;;;;11.95;2.00;;;-5.00;99.90;;;;;;5065814;28;20259;-83
2022/03/02 03:58:22;;;;;;;0.30;0.10;;;-5.00;99.90;;;;;;5070022;28;20278;-82
2022/03/02 04:00:48;;;;;;;0.30;0.10;;;-5.00;99.90;;;;;;5066982;28;20251;-83
2022/03/02 04:03:15;;;;;;;0.30;0.10;;;-5.10;99.90;;;;;;5070314;28;20197;-83
2022/03/02 04:05:44;;;;;;;0.30;0.10;;;-5.10;99.90;;;;;;5065510;28;20704;-83
2022/03/02 04:08:11;;;;;;;0.30;0.10;;;-5.10;99.90;;;;;;5064360;28;20233;-83
2022/03/02 04:10:38;;;;;;;0.30;0.10;;;-5.20;99.90;;;;;;5065929;28;20259;-85
2022/03/02 04:13:05;;;;;;;0.30;0.10;;;-5.30;99.90;;;;;;5070745;28;20262;-84
2022/03/02 04:15:32;;;;;;;0.30;0.10;;;-5.30;99.90;;;;;;5066926;28;20284;-83
2022/03/02 04:17:59;;;;;;;0.30;0.10;;;-5.40;99.90;;;;;;5065336;28;20259;-84
2022/03/02 04:20:26;;;;;;;0.30;0.10;;;-5.40;99.90;;;;;;5068683;28;20200;-84
2022/03/02 04:22:54;;;;;;;0.30;0.10;;;-5.50;99.90;;;;;;5063499;28;20194;-82
2022/03/02 04:25:21;;;;;;;0.30;0.10;;;-5.60;99.90;;;;;;5068147;28;20362;-84
2022/03/02 04:27:48;;;;;;;0.30;0.10;;;-5.60;99.90;;;;;;5069530;28;20255;-83
2022/03/02 04:30:15;;;;;;;0.30;0.10;;;-5.70;99.90;;;;;;5066440;28;20302;-83
2022/03/02 04:32:42;;;;;;;0.30;0.10;;;-5.70;99.90;;;;;;5066896;28;20209;-82
2022/03/02 04:35:11;;;;;;;0.30;0.10;;;-5.70;99.90;;;;;;5064211;28;20202;-85
2022/03/02 04:37:39;;;;;;;0.30;0.10;;;-5.80;99.90;;;;;;5073206;28;20194;-81
2022/03/02 04:40:10;;;;;;;2.15;0.95;;;-5.80;99.90;;;;;;5073778;28;20206;-82
2022/03/02 04:42:37;;;;;;;0.30;0.10;;;-5.90;99.90;;;;;;5058317;28;20568;-82
2022/03/02 04:45:05;;;;;;;0.30;0.10;;;-5.90;99.90;;;;;;5069444;28;20214;-83
2022/03/02 04:47:33;;;;;;;0.30;0.10;;;-5.90;99.90;;;;;;5065910;28;20229;-86
2022/03/02 04:49:59;;;;;;;0.30;0.10;;;-5.90;99.90;;;;;;5069151;28;20243;-85
2022/03/02 04:52:28;;;;;;;0.30;0.20;;;-6.00;99.90;;;;;;5058953;28;20279;-83
2022/03/02 04:55:07;;;;;;;0.30;0.10;;;-6.00;99.90;;;;;;5065555;28;20204;-83
2022/03/02 04:57:35;;;;;;;0.45;0.45;;;-5.90;99.90;;;;;;5066243;28;20201;-84
2022/03/02 05:00:05;;;;;;;0.30;0.10;;;-5.80;99.90;;;;;;5060731;28;20248;-85
2022/03/02 05:02:32;;;;;;;0.30;0.10;;;-5.90;99.90;;;;;;5065772;28;20289;-85
2022/03/02 05:04:59;;;;;;;0.30;0.20;;;-5.90;99.90;;;;;;5062949;28;20299;-86
2022/03/02 05:07:26;;;;;;;0.30;0.10;;;-5.90;99.90;;;;;;5063443;28;20274;-84
2022/03/02 05:09:53;;;;;;;0.30;0.10;;;-5.80;99.90;;;;;;5064732;28;20560;-84
2022/03/02 05:12:20;;;;;;;0.30;0.10;;;-5.80;99.90;;;;;;5065529;28;20233;-84
2022/03/02 05:14:49;;;;;;;0.30;0.20;;;-5.90;99.90;;;;;;5064692;28;20213;-87
2022/03/02 05:17:16;;;;;;;0.30;0.10;;;-5.90;99.90;;;;;;5061115;28;20237;-84
2022/03/02 05:19:43;;;;;;;0.30;0.10;;;-5.80;99.90;;;;;;5069069;28;20243;-84
2022/03/02 05:22:10;;;;;;;0.30;0.10;;;-5.80;99.90;;;;;;5065199;28;20288;-83
2022/03/02 05:24:37;;;;;;;5.88;0.68;;;-5.80;99.90;;;;;;5058528;28;20216;-84
2022/03/02 05:27:05;;;;;;;0.30;0.10;;;-5.80;99.90;;;;;;5067819;28;20334;-84
2022/03/02 05:29:33;;;;;;;0.30;0.10;;;-5.80;99.90;;;;;;5069012;28;20204;-86
2022/03/02 05:32:01;;;;;;;0.30;0.10;;;-5.90;99.90;;;;;;5064738;28;20216;-86
2022/03/02 05:34:28;;;;;;;0.63;0.57;;;-5.90;99.90;;;;;;5062780;28;20621;-85
2022/03/02 05:36:55;;;;;;;0.30;0.20;;;-5.90;99.90;;;;;;5084864;28;20194;-83
2022/03/02 05:39:23;;;;;;;0.30;0.10;;;-5.80;99.90;;;;;;5063699;28;20319;-83
2022/03/02 05:41:50;;;;;;;0.30;0.10;;;-5.80;99.90;;;;;;5061011;28;20201;-85
2022/03/02 05:44:17;;;;;;;0.30;0.10;;;-5.80;99.90;;;;;;5067796;28;20217;-81
2022/03/02 05:46:44;;;;;;;0.30;0.10;;;-5.70;99.90;;;;;;5067863;28;20257;-82
2022/03/02 05:49:13;;;;;;;0.30;0.20;;;-5.80;99.90;;;;;;5072814;28;20729;-79
2022/03/02 05:51:41;;;;;;;0.30;0.20;;;-5.80;99.90;;;;;;5063346;28;20208;-83
2022/03/02 05:54:09;;;;;;;0.30;0.10;;;-5.80;99.90;;;;;;5072716;28;20201;-83
2022/03/02 05:56:38;;;;;;;0.30;0.10;;;-5.70;99.90;;;;;;5071102;28;20213;-83
2022/03/02 05:59:05;;;;;;;0.30;0.10;;;-5.70;99.90;;;;;;5072039;28;20202;-83
2022/03/02 06:01:34;;;;;;;0.30;0.10;;;-5.60;99.90;;;;;;5070433;28;20201;-83
2022/03/02 06:04:02;;;;;;;0.40;0.28;;;-5.50;99.90;;;;;;5067698;28;20201;-83
2022/03/02 06:06:32;;;;;;;1.23;0.80;;;-5.50;99.90;;;;;;5064312;28;20722;-83
2022/03/02 06:09:00;;;;;;;0.30;0.20;;;-5.40;99.90;;;;;;5053473;28;20293;-83
2022/03/02 06:11:27;;;;;;;0.30;0.10;;;-5.30;99.90;;;;;;5068690;28;20236;-83
2022/03/02 06:13:55;;;;;;;0.30;0.10;;;-5.30;99.90;;;;;;5050959;28;20202;-83
2022/03/02 06:16:22;;;;;;;0.30;0.10;;;-5.20;99.90;;;;;;5067795;28;20876;-83
2022/03/02 06:18:50;;;;;;;0.40;0.20;;;-5.10;99.90;;;;;;5063640;28;20264;-83
2022/03/02 06:21:20;;;;;;;0.30;0.10;;;-5.10;99.90;;;;;;5069128;28;20193;-86
2022/03/02 06:23:49;;;;;;;0.30;0.10;;;-4.90;99.90;;;;;;5067292;28;20238;-83
2022/03/02 06:26:18;;;;;;;0.30;0.10;;;-4.80;99.90;;;;;;5071803;28;20685;-83
2022/03/02 06:28:45;;;;;;;0.30;0.10;;;-4.70;99.90;;;;;;5058939;28;20256;-83
2022/03/02 06:31:13;;;;;;;0.30;0.10;;;-4.70;99.90;;;;;;5051952;28;20238;-83
2022/03/02 06:33:40;;;;;;;0.30;0.10;;;-4.60;99.90;;;;;;5063519;28;20232;-83
2022/03/02 06:36:07;;;;;;;0.32;0.20;;;-4.30;99.90;;;;;;5080556;28;20232;-83
2022/03/02 06:38:34;;;;;;;0.30;0.20;;;-4.20;99.90;;;;;;5067375;28;20634;-83
2022/03/02 06:41:06;;;;;;;0.30;0.20;;;-4.10;99.90;;;;;;5071095;28;20229;-83
2022/03/02 06:43:34;;;;;;;0.30;0.10;;;-4.00;99.90;;;;;;5071544;28;20235;-83
2022/03/02 06:46:08;;;;;;;0.30;0.10;;;-3.80;99.90;;;;;;5071498;28;20225;-85
2022/03/02 06:48:46;;;;;;;0.30;0.10;;;-3.80;99.90;;;;;;5052002;28;20309;-83
2022/03/02 06:51:15;;;;;;;0.30;0.10;;;-3.80;99.90;;;;;;5064424;28;20220;-80
2022/03/02 06:53:45;;;;;;;0.30;0.10;;;-3.70;99.90;;;;;;5061694;28;20194;-83
2022/03/02 06:56:14;;;;;;;0.30;0.10;;;-3.70;99.90;;;;;;5069918;28;20263;-82
2022/03/02 06:58:42;;;;;;;0.30;0.10;;;-3.50;99.90;;;;;;5071543;28;20201;-85
2022/03/02 07:01:11;;;;;;;0.30;0.10;;;-3.30;99.90;;;;;;5062377;28;20836;-83
2022/03/02 07:03:45;;;;;;;0.30;0.20;;;-3.20;99.90;;;;;;5060837;28;20201;-84
2022/03/02 07:06:13;;;;;;;0.30;0.10;;;-3.10;99.90;;;;;;5069405;28;20317;-87
2022/03/02 07:08:44;;;;;;;0.50;0.30;;;-3.00;99.90;;;;;;5050868;28;20744;-83
2022/03/02 07:11:12;;;;;;;0.30;0.10;;;-3.00;99.90;;;;;;5070837;28;20201;-84
2022/03/02 07:13:39;;;;;;;0.63;0.63;;;-3.00;99.90;;;;;;5070604;28;20201;-85
2022/03/02 07:16:07;;;;;;;0.30;0.10;;;-2.80;99.90;;;;;;5066604;28;20291;-84
2022/03/02 07:18:35;;;;;;;0.30;0.10;;;-2.70;99.90;;;;;;5051321;28;20264;-84
2022/03/02 07:21:08;;;;;;;0.30;0.10;;;-2.70;99.90;;;;;;5064612;28;20202;-85
2022/03/02 07:23:41;;;;;;;0.30;0.10;;;-2.50;99.90;;;;;;5066143;28;20206;-84
2022/03/02 07:26:09;;;;;;;0.30;0.20;;;-2.50;99.90;;;;;;5070186;28;20867;-83
2022/03/02 07:28:39;;;;;;;0.30;0.10;;;-2.40;99.90;;;;;;5068211;28;20612;-83
2022/03/02 07:31:08;;;;;;;0.30;0.10;;;-2.30;99.90;;;;;;5078557;28;20235;-81
2022/03/02 07:33:39;;;;;;;0.30;0.10;;;-2.40;99.90;;;;;;5072643;28;20316;-87
2022/03/02 07:36:08;;;;;;;0.30;0.10;;;-2.30;99.90;;;;;;5063722;28;20209;-84
2022/03/02 07:38:35;;;;;;;0.30;0.10;;;-2.30;99.90;;;;;;5070274;28;20316;-86
2022/03/02 07:41:05;;;;;;;0.30;0.20;;;-2.30;99.90;;;;;;5068434;28;20258;-84
2022/03/02 07:43:36;;;;;;;0.30;0.10;;;-2.20;99.90;;;;;;5069438;28;20198;-84
2022/03/02 07:46:04;;;;;;;0.40;0.20;;;-2.10;99.90;;;;;;5068508;28;20224;-84
2022/03/02 07:48:32;;;;;;;0.30;0.10;;;-1.90;99.90;;;;;;5060903;28;20198;-87
2022/03/02 07:51:01;;;;;;;0.30;0.10;;;-1.80;99.90;;;;;;5066736;28;20256;-84
2022/03/02 07:53:32;;;;;;;0.30;0.10;;;-1.80;99.90;;;;;;5067521;28;20256;-84
2022/03/02 07:56:01;;;;;;;0.30;0.10;;;-1.70;99.90;;;;;;5067725;28;20205;-84
2022/03/02 07:58:29;;;;;;;0.30;0.20;;;-1.50;99.90;;;;;;5067515;28;20198;-84
2022/03/02 08:00:56;;;;;;;0.30;0.20;;;-1.40;99.90;;;;;;5068571;28;20259;-84
2022/03/02 08:03:27;;;;;;;0.30;0.10;;;-1.20;99.90;;;;;;5069997;28;20264;-86
2022/03/02 08:05:56;;;;;;;0.30;0.10;;;-1.20;99.90;;;;;;5070543;28;20266;-84
2022/03/02 08:08:23;;;;;;;0.30;0.20;;;-1.10;99.90;;;;;;5067293;28;20791;-84
2022/03/02 08:10:51;;;;;;;0.30;0.20;;;-0.90;99.90;;;;;;5069626;28;20648;-86
2022/03/02 08:13:18;;;;;;;0.30;0.10;;;-0.90;99.90;;;;;;5066358;28;20244;-87
2022/03/02 08:15:45;;;;;;;0.30;0.10;;;-0.80;99.90;;;;;;5070015;28;20234;-86
2022/03/02 08:18:12;;;;;;;0.30;0.10;;;-0.60;99.90;;;;;;5069548;28;20198;-84
2022/03/02 08:20:48;;;;;;;0.30;0.10;;;-0.30;99.90;;;;;;5065424;28;20202;-85
2022/03/02 08:23:16;;;;;;;0.30;0.10;;;-0.40;99.90;;;;;;5068332;28;20202;-83
2022/03/02 08:25:43;;;;;;;0.73;0.73;;;-0.40;99.90;;;;;;5069336;28;20303;-83
2022/03/02 08:28:10;;;;;;;0.30;0.10;;;-0.20;99.90;;;;;;5074008;28;20206;-83
2022/03/02 08:30:39;;;;;;;0.40;0.20;;;0.00;99.90;;;;;;5072191;28;20652;-83
2022/03/02 08:33:07;;;;;;;0.30;0.10;;;0.10;99.90;;;;;;5068148;28;20257;-84
2022/03/02 08:35:39;;;;;;;0.30;0.20;;;0.10;99.90;;;;;;5067250;28;20196;-87
2022/03/02 08:38:08;;;;;;;0.30;0.10;;;0.20;99.90;;;;;;5067123;28;20284;-83
2022/03/02 08:40:35;;;;;;;0.30;0.20;;;0.20;99.90;;;;;;5069050;28;20288;-86
2022/03/02 08:43:02;;;;;;;0.30;0.17;;;0.20;99.90;;;;;;5069395;28;20202;-86
2022/03/02 08:45:29;;;;;;;0.40;0.30;;;0.30;99.80;;;;;;5068009;28;20856;-86
2022/03/02 08:48:00;;;;;;;0.30;0.10;;;0.30;99.90;;;;;;5066711;28;20234;-88
2022/03/02 08:50:27;;;;;;;0.30;0.10;;;0.40;99.60;;;;;;5066355;28;20201;-89
2022/03/02 08:52:56;;;;;;;0.30;0.10;;;0.50;99.40;;;;;;5066617;28;20199;-87
2022/03/02 08:55:30;;;;;;;0.30;0.20;;;0.60;99.00;;;;;;5061471;28;20203;-89
2022/03/02 08:57:58;;;;;;;3.83;1.48;;;0.80;98.90;;;;;;5067669;28;20233;-85
2022/03/02 09:00:25;;;;;;;0.40;0.40;;;0.80;98.30;;;;;;5066096;28;20656;-86
2022/03/02 09:02:53;;;;;;;0.30;0.10;;;0.90;97.00;;;;;;5049301;28;20211;-87
2022/03/02 09:05:20;;;;;;;0.30;0.20;;;1.00;97.50;;;;;;5054470;28;20200;-87
2022/03/02 09:07:47;;;;;;;2.15;2.05;;;1.00;96.60;;;;;;5069406;28;20296;-85
2022/03/02 09:10:14;;;;;;;0.30;0.10;;;1.00;96.60;;;;;;5050247;28;20283;-88
2022/03/02 09:12:43;;;;;;;0.30;0.10;;;1.20;96.00;;;;;;5049694;28;20613;-85
2022/03/02 09:15:10;;;;;;;0.40;0.20;;;1.10;97.00;;;;;;5055975;28;20205;-85
2022/03/02 09:17:37;;;;;;;0.30;0.20;;;1.10;97.00;;;;;;5063244;28;20634;-86
2022/03/02 09:20:06;;;;;;;0.40;0.20;;;1.10;96.40;;;;;;5049518;28;20540;-86
2022/03/02 09:22:37;;;;;;;0.40;0.20;;;1.20;96.10;;;;;;5056809;28;20199;-85
2022/03/02 09:25:06;;;;;;;0.30;0.10;;;1.30;97.20;;;;;;5068345;28;20207;-85
2022/03/02 09:27:33;;;;;;;0.30;0.20;;;1.40;95.80;;;;;;5068913;28;20257;-84
2022/03/02 09:30:05;;;;;;;0.30;0.10;;;1.50;95.50;;;;;;5065226;28;20204;-86
2022/03/02 09:32:33;;;;;;;0.40;0.25;;;1.60;95.40;;;;;;5068671;28;20203;-83
2022/03/02 09:35:01;;;;;;;0.30;0.10;;;1.70;95.00;;;;;;5066110;28;20214;-84
2022/03/02 09:37:33;;;;;;;0.30;0.20;;;1.70;95.20;;;;;;5062120;28;20213;-85
2022/03/02 09:40:01;;;;;;;0.30;0.10;;;1.70;95.90;;;;;;5065241;28;20269;-84
2022/03/02 09:42:32;;;;;;;0.73;0.73;;;1.70;95.30;;;;;;5065553;28;20208;-87
2022/03/02 09:45:04;;;;;;;0.30;0.10;;;2.00;94.70;;;;;;5067297;28;20286;-83
2022/03/02 09:47:42;;;;;;;0.30;0.10;;;2.00;93.10;;;;;;5066517;28;20220;-85
2022/03/02 09:50:12;;;;;;;0.30;0.10;;;1.90;93.80;;;;;;5064338;28;21089;-84
2022/03/02 09:52:41;;;;;;;0.30;0.20;;;2.00;92.40;;;;;;5062219;28;20208;-89
2022/03/02 09:55:12;;;;;;;0.30;0.20;;;2.00;93.10;;;;;;5068658;28;20450;-84
2022/03/02 09:57:43;;;;;;;0.30;0.10;;;2.20;93.00;;;;;;5065754;28;20448;-87
2022/03/02 10:00:14;;;;;;;0.30;0.10;;;2.50;93.20;;;;;;5068300;28;20473;-84
2022/03/02 10:02:43;;;;;;;0.30;0.10;;;2.70;93.20;;;;;;5065068;28;20504;-84
2022/03/02 10:05:12;;;;;;;0.30;0.20;;;2.90;92.20;;;;;;5068546;28;20448;-86
2022/03/02 10:07:44;;;;;;;0.30;0.10;;;3.00;92.10;;;;;;5067949;28;21005;-84
2022/03/02 10:10:14;;;;;;;0.30;0.20;;;3.10;91.50;;;;;;5065901;28;20452;-83
2022/03/02 10:12:41;;;;;;;0.30;0.10;;;3.00;92.80;;;;;;5053684;28;20547;-83
2022/03/02 10:15:11;;;;;;;0.30;0.10;;;3.00;91.20;;;;;;5054948;28;21098;-83
2022/03/02 10:17:41;;;;;;;0.30;0.20;;;3.10;92.00;;;;;;5066062;28;20568;-83
2022/03/02 10:20:11;;;;;;;2.05;1.85;;;3.20;91.50;;;;;;5061154;28;20200;-85
2022/03/02 10:23:14;;;;;;;0.30;0.20;;;3.10;92.20;;;;;;5072267;28;20231;-86
2022/03/02 10:25:55;;;;;;;0.30;0.10;;;3.30;92.90;;;;;;5050893;28;21002;-84
2022/03/02 10:28:28;;;;;;;0.30;0.20;;;3.60;92.70;;;;;;5063644;28;20916;-83
2022/03/02 10:31:25;;;;;;;0.30;0.20;;;3.70;91.60;;;;;;5059589;28;20452;-84
2022/03/02 10:33:56;;;;;;;0.40;0.30;;;3.70;91.40;;;;;;5042001;28;20531;-83
2022/03/02 10:36:27;;;;;;;0.30;0.20;;;3.80;92.00;;;;;;5052382;28;20479;-84
2022/03/02 10:39:06;;;;;;;0.30;0.20;;;3.80;90.50;;;;;;5065507;28;20451;-84
2022/03/02 10:41:37;;;;;;;0.40;0.33;;;4.00;89.60;;;;;;5063848;28;20474;-86
2022/03/02 10:44:06;;;;;;;0.30;0.20;;;3.90;90.00;;;;;;5068120;28;20454;-86
2022/03/02 10:46:34;;;;;;;0.30;0.10;;;4.00;90.30;;;;;;5071500;28;20515;-84
2022/03/02 10:49:06;;;;;;;0.30;0.10;;;4.20;90.80;;;;;;5059781;28;20469;-84
2022/03/02 10:51:35;;;;;;;0.30;0.20;;;4.30;90.00;;;;;;5051967;28;20441;-85
2022/03/02 10:54:06;;;;;;;0.40;0.20;;;4.50;88.30;;;;;;5051579;28;20986;-84
2022/03/02 10:56:39;;;;;;;0.30;0.10;;;4.50;89.10;;;;;;5051416;28;20445;-88
2022/03/02 10:59:08;;;;;;;0.30;0.20;;;4.80;88.40;;;;;;5054139;28;20490;-86
2022/03/02 11:01:35;;;;;;;0.40;0.20;;;4.70;86.00;;;;;;5071883;28;20516;-84
2022/03/02 11:04:06;;;;;;;0.30;0.20;;;4.80;87.50;;;;;;5056832;28;20922;-82
2022/03/02 11:06:35;;;;;;;0.90;0.90;;;4.80;86.90;;;;;;5071580;28;20811;-82
2022/03/02 11:09:02;;;;;;;0.30;0.10;;;4.80;86.50;;;;;;5071133;28;20462;-87
2022/03/02 11:11:33;;;;;;;0.30;0.17;;;4.90;85.70;;;;;;5069766;28;20942;-85
2022/03/02 11:14:00;;;;;;;0.67;0.50;;;5.10;86.50;;;;;;5071423;28;20451;-83
2022/03/02 11:16:27;;;;;;;0.43;0.43;;;5.30;85.80;;;;;;5070557;28;20472;-83
2022/03/02 11:18:55;;;;;;;0.30;0.20;;;5.40;84.10;;;;;;5076713;28;20452;-83
2022/03/02 11:21:29;;;;;;;0.30;0.20;;;5.60;80.80;;;;;;5074265;28;20486;-83
2022/03/02 11:23:57;;;;;;;0.30;0.20;;;5.60;80.30;;;;;;5072053;28;20482;-83
2022/03/02 11:26:27;;;;;;;0.30;0.10;;;5.60;81.00;;;;;;5071598;28;20512;-86
2022/03/02 11:28:56;;;;;;;0.30;0.10;;;5.70;80.20;;;;;;5064949;28;21012;-87
2022/03/02 11:31:26;;;;;;;0.60;0.60;;;5.60;80.60;;;;;;5066435;28;20976;-88
2022/03/02 11:34:10;;;;;;;0.40;0.30;;;5.60;81.20;;;;;;5068288;28;20456;-87
2022/03/02 11:36:40;;;;;;;0.67;0.60;;;5.60;81.80;;;;;;5055932;28;20465;-87
2022/03/02 11:39:09;;;;;;;0.33;0.20;;;5.50;79.60;;;;;;5056440;28;20465;-85
2022/03/02 11:41:42;;;;;;;1.03;1.03;;;5.50;78.90;;;;;;5050129;28;21045;-86
2022/03/02 11:44:28;;;;;;;0.30;0.20;;;5.40;80.00;;;;;;5057937;28;20464;-84
2022/03/02 11:46:55;;;;;;;0.30;0.20;;;5.40;77.80;;;;;;5057453;28;20479;-84
2022/03/02 11:49:36;;;;;;;0.30;0.20;;;5.50;80.10;;;;;;5059636;28;20489;-85
2022/03/02 11:52:07;;;;;;;0.40;0.30;;;5.50;80.20;;;;;;5051055;28;20838;-85
2022/03/02 11:54:46;;;;;;;2.43;0.53;;;5.40;79.60;;;;;;5050053;28;20468;-86
2022/03/02 11:57:15;;;;;;;0.67;0.50;;;5.30;79.70;;;;;;5050110;28;20452;-83
2022/03/02 11:59:43;;;;;;;0.30;0.20;;;5.50;78.00;;;;;;5067707;28;20505;-84
2022/03/02 12:02:16;;;;;;;0.50;0.30;;;5.70;80.70;;;;;;5070065;28;21075;-84
2022/03/02 12:04:58;;;;;;;0.30;0.10;;;5.70;80.10;;;;;;5052173;28;20508;-88
2022/03/02 12:07:35;;;;;;;0.30;0.20;;;5.60;76.30;;;;;;5070476;28;20479;-84
2022/03/02 12:10:03;;;;;;;2.73;1.17;;;5.80;77.10;;;;;;5070567;28;20509;-86
2022/03/02 12:12:30;;;;;;;0.30;0.20;;;5.70;73.60;;;;;;5069486;28;20534;-84
2022/03/02 12:15:01;;;;;;;0.40;0.20;;;5.90;73.90;;;;;;5075674;28;20512;-83
2022/03/02 12:17:33;;;;;;;1.20;1.10;;;6.10;73.90;;;;;;5071373;28;20480;-84
2022/03/02 12:20:06;;;;;;;0.40;0.30;;;6.40;74.90;;;;;;5058764;28;20464;-84
2022/03/02 12:22:36;;;;;;;0.97;0.87;;;6.40;72.90;;;;;;5065031;28;20495;-87
2022/03/02 12:25:05;;;;;;;0.30;0.20;;;6.40;70.70;;;;;;5069931;28;20474;-87
2022/03/02 12:27:31;;;;;;;0.40;0.40;;;6.40;72.10;;;;;;5069276;28;20846;-84
2022/03/02 12:30:01;;;;;;;0.30;0.20;;;6.70;71.50;;;;;;5068528;28;20950;-85
2022/03/02 12:32:29;;;;;;;0.30;0.20;;;6.70;71.70;;;;;;5070626;28;20448;-86
2022/03/02 12:34:58;;;;;;;0.30;0.20;;;6.70;73.10;;;;;;5064541;28;20476;-85
2022/03/02 12:37:26;;;;;;;0.30;0.20;;;6.70;69.20;;;;;;5070294;28;20444;-87
2022/03/02 12:39:55;;;;;;;0.30;0.20;;;6.90;68.80;;;;;;5065914;28;20925;-85
2022/03/02 12:42:22;;;;;;;0.30;0.10;;;7.00;68.60;;;;;;5057877;28;20463;-85
2022/03/02 12:44:51;;;;;;;7.53;1.33;;;7.00;65.00;;;;;;5069639;28;20514;-85
2022/03/02 12:47:20;;;;;;;0.30;0.10;;;7.00;64.50;;;;;;5069933;28;20496;-85
2022/03/02 12:49:50;;;;;;;0.30;0.10;;;7.00;62.00;;;;;;5062238;28;20457;-85
2022/03/02 12:52:18;;;;;;;0.30;0.20;;;7.30;63.20;;;;;;5071498;28;20452;-85
2022/03/02 12:54:47;;;;;;;0.30;0.20;;;7.20;62.70;;;;;;5069248;28;20460;-85
2022/03/02 12:57:18;;;;;;;0.37;0.23;;;7.30;57.80;;;;;;5061971;28;20469;-85
2022/03/02 12:59:46;;;;;;;0.53;0.40;;;7.60;55.70;;;;;;5059849;28;20445;-85